sensor_id;sensor_type;location;lat;lon;timestamp;P1;durP1;ratioP1;P2;durP2;ratioP2
6985;SDS011;3533;51.246;6.850;2023-01-29T00:01:53;7.40;;;6.97;;
6985;SDS011;3533;51.246;6.850;2023-01-29T00:04:20;7.50;;;7.07;;
6985;SDS011;3533;51.246;6.850;2023-01-29T00:06:45;8.07;;;7.47;;
6985;SDS011;3533;51.246;6.850;2023-01-29T00:09:11;7.57;;;7.07;;
6985;SDS011;3533;51.246;6.850;2023-01-29T00:11:37;8.07;;;7.40;;
6985;SDS011;3533;51.246;6.850;2023-01-29T00:14:03;7.13;;;6.67;;
6985;SDS011;3533;51.246;6.850;2023-01-29T00:16:29;7.87;;;7.27;;
6985;SDS011;3533;51.246;6.850;2023-01-29T00:18:55;8.23;;;7.63;;
6985;SDS011;3533;51.246;6.850;2023-01-29T00:21:21;7.77;;;7.27;;
6985;SDS011;3533;51.246;6.850;2023-01-29T00:23:47;7.30;;;6.70;;
6985;SDS011;3533;51.246;6.850;2023-01-29T00:26:13;7.50;;;7.00;;
6985;SDS011;3533;51.246;6.850;2023-01-29T00:28:39;7.43;;;7.03;;
6985;SDS011;3533;51.246;6.850;2023-01-29T00:31:06;7.33;;;6.83;;
6985;SDS011;3533;51.246;6.850;2023-01-29T00:33:32;7.63;;;7.17;;
6985;SDS011;3533;51.246;6.850;2023-01-29T00:36:00;7.10;;;6.70;;
6985;SDS011;3533;51.246;6.850;2023-01-29T00:38:27;7.93;;;7.27;;
6985;SDS011;3533;51.246;6.850;2023-01-29T00:40:52;7.57;;;7.07;;
6985;SDS011;3533;51.246;6.850;2023-01-29T00:43:36;7.77;;;7.27;;
6985;SDS011;3533;51.246;6.850;2023-01-29T00:46:21;8.17;;;7.37;;
6985;SDS011;3533;51.246;6.850;2023-01-29T00:48:46;8.53;;;7.93;;
6985;SDS011;3533;51.246;6.850;2023-01-29T00:51:12;7.30;;;6.90;;
6985;SDS011;3533;51.246;6.850;2023-01-29T00:53:37;7.17;;;6.67;;
6985;SDS011;3533;51.246;6.850;2023-01-29T00:56:03;7.57;;;7.07;;
6985;SDS011;3533;51.246;6.850;2023-01-29T00:58:28;6.80;;;6.40;;
6985;SDS011;3533;51.246;6.850;2023-01-29T01:00:58;7.63;;;7.13;;
6985;SDS011;3533;51.246;6.850;2023-01-29T01:03:25;7.20;;;6.80;;
6985;SDS011;3533;51.246;6.850;2023-01-29T01:06:01;7.10;;;6.60;;
6985;SDS011;3533;51.246;6.850;2023-01-29T01:08:28;8.13;;;7.50;;
6985;SDS011;3533;51.246;6.850;2023-01-29T01:11:12;7.10;;;6.70;;
6985;SDS011;3533;51.246;6.850;2023-01-29T01:13:38;7.03;;;6.53;;
6985;SDS011;3533;51.246;6.850;2023-01-29T01:16:13;8.13;;;7.37;;
6985;SDS011;3533;51.246;6.850;2023-01-29T01:18:42;7.30;;;6.80;;
6985;SDS011;3533;51.246;6.850;2023-01-29T01:21:08;7.13;;;6.70;;
6985;SDS011;3533;51.246;6.850;2023-01-29T01:23:33;7.70;;;7.20;;
6985;SDS011;3533;51.246;6.850;2023-01-29T01:25:59;6.50;;;6.07;;
6985;SDS011;3533;51.246;6.850;2023-01-29T01:28:25;6.97;;;6.47;;
6985;SDS011;3533;51.246;6.850;2023-01-29T01:30:51;6.90;;;6.50;;
6985;SDS011;3533;51.246;6.850;2023-01-29T01:33:16;6.67;;;6.27;;
6985;SDS011;3533;51.246;6.850;2023-01-29T01:35:42;6.97;;;6.57;;
6985;SDS011;3533;51.246;6.850;2023-01-29T01:38:07;7.03;;;6.43;;
6985;SDS011;3533;51.246;6.850;2023-01-29T01:40:33;6.93;;;6.43;;
6985;SDS011;3533;51.246;6.850;2023-01-29T01:42:59;6.63;;;6.13;;
6985;SDS011;3533;51.246;6.850;2023-01-29T01:45:29;6.23;;;5.83;;
6985;SDS011;3533;51.246;6.850;2023-01-29T01:47:57;7.33;;;6.77;;
6985;SDS011;3533;51.246;6.850;2023-01-29T01:50:34;6.67;;;6.27;;
6985;SDS011;3533;51.246;6.850;2023-01-29T01:53:14;6.67;;;6.27;;
6985;SDS011;3533;51.246;6.850;2023-01-29T01:55:54;6.87;;;6.20;;
6985;SDS011;3533;51.246;6.850;2023-01-29T01:58:28;6.70;;;6.20;;
6985;SDS011;3533;51.246;6.850;2023-01-29T02:00:57;7.13;;;6.63;;
6985;SDS011;3533;51.246;6.850;2023-01-29T02:03:23;6.40;;;6.00;;
6985;SDS011;3533;51.246;6.850;2023-01-29T02:06:08;7.47;;;6.97;;
6985;SDS011;3533;51.246;6.850;2023-01-29T02:08:55;6.67;;;6.27;;
6985;SDS011;3533;51.246;6.850;2023-01-29T02:11:44;6.50;;;6.10;;
6985;SDS011;3533;51.246;6.850;2023-01-29T02:14:09;6.10;;;5.73;;
6985;SDS011;3533;51.246;6.850;2023-01-29T02:16:36;6.20;;;5.90;;
6985;SDS011;3533;51.246;6.850;2023-01-29T02:19:03;5.97;;;5.67;;
6985;SDS011;3533;51.246;6.850;2023-01-29T02:21:45;5.80;;;5.50;;
6985;SDS011;3533;51.246;6.850;2023-01-29T02:24:31;5.97;;;5.67;;
6985;SDS011;3533;51.246;6.850;2023-01-29T02:32:52;6.73;;;6.23;;
6985;SDS011;3533;51.246;6.850;2023-01-29T02:35:31;5.87;;;5.57;;
6985;SDS011;3533;51.246;6.850;2023-01-29T02:38:12;5.50;;;5.10;;
6985;SDS011;3533;51.246;6.850;2023-01-29T02:40:57;5.67;;;5.27;;
6985;SDS011;3533;51.246;6.850;2023-01-29T02:43:45;5.20;;;4.90;;
6985;SDS011;3533;51.246;6.850;2023-01-29T02:46:18;5.90;;;5.60;;
6985;SDS011;3533;51.246;6.850;2023-01-29T02:49:29;6.80;;;6.30;;
6985;SDS011;3533;51.246;6.850;2023-01-29T02:52:02;6.37;;;5.87;;
6985;SDS011;3533;51.246;6.850;2023-01-29T02:54:38;5.60;;;5.30;;
6985;SDS011;3533;51.246;6.850;2023-01-29T02:57:13;6.10;;;5.70;;
6985;SDS011;3533;51.246;6.850;2023-01-29T02:59:48;6.50;;;6.10;;
6985;SDS011;3533;51.246;6.850;2023-01-29T03:02:20;6.00;;;5.53;;
6985;SDS011;3533;51.246;6.850;2023-01-29T03:04:56;6.50;;;6.10;;
6985;SDS011;3533;51.246;6.850;2023-01-29T03:07:26;5.07;;;4.77;;
6985;SDS011;3533;51.246;6.850;2023-01-29T03:10:18;5.67;;;5.27;;
6985;SDS011;3533;51.246;6.850;2023-01-29T03:12:45;6.20;;;5.80;;
6985;SDS011;3533;51.246;6.850;2023-01-29T03:15:17;6.40;;;6.00;;
6985;SDS011;3533;51.246;6.850;2023-01-29T03:17:54;5.70;;;5.20;;
6985;SDS011;3533;51.246;6.850;2023-01-29T03:20:25;5.67;;;5.30;;
6985;SDS011;3533;51.246;6.850;2023-01-29T03:23:20;5.23;;;4.83;;
6985;SDS011;3533;51.246;6.850;2023-01-29T03:25:51;4.73;;;4.53;;
6985;SDS011;3533;51.246;6.850;2023-01-29T03:28:41;5.27;;;4.97;;
6985;SDS011;3533;51.246;6.850;2023-01-29T03:31:27;5.30;;;4.90;;
6985;SDS011;3533;51.246;6.850;2023-01-29T03:34:17;5.47;;;5.07;;
6985;SDS011;3533;51.246;6.850;2023-01-29T03:37:00;5.60;;;5.20;;
6985;SDS011;3533;51.246;6.850;2023-01-29T03:39:28;6.17;;;5.67;;
6985;SDS011;3533;51.246;6.850;2023-01-29T03:44:31;5.27;;;4.97;;
6985;SDS011;3533;51.246;6.850;2023-01-29T03:47:11;4.70;;;4.50;;
6985;SDS011;3533;51.246;6.850;2023-01-29T03:50:11;4.80;;;4.50;;
6985;SDS011;3533;51.246;6.850;2023-01-29T03:52:45;4.83;;;4.53;;
6985;SDS011;3533;51.246;6.850;2023-01-29T03:58:13;5.10;;;4.80;;
6985;SDS011;3533;51.246;6.850;2023-01-29T04:01:14;5.03;;;4.80;;
6985;SDS011;3533;51.246;6.850;2023-01-29T04:06:17;4.80;;;4.50;;
6985;SDS011;3533;51.246;6.850;2023-01-29T04:11:35;5.37;;;5.03;;
6985;SDS011;3533;51.246;6.850;2023-01-29T04:14:05;4.73;;;4.53;;
6985;SDS011;3533;51.246;6.850;2023-01-29T04:16:33;5.27;;;4.87;;
6985;SDS011;3533;51.246;6.850;2023-01-29T04:19:03;5.03;;;4.50;;
6985;SDS011;3533;51.246;6.850;2023-01-29T04:21:29;5.10;;;4.80;;
6985;SDS011;3533;51.246;6.850;2023-01-29T04:23:58;4.93;;;4.53;;
6985;SDS011;3533;51.246;6.850;2023-01-29T04:32:19;4.93;;;4.63;;
6985;SDS011;3533;51.246;6.850;2023-01-29T04:37:42;4.53;;;4.27;;
6985;SDS011;3533;51.246;6.850;2023-01-29T04:43:05;5.00;;;4.70;;
6985;SDS011;3533;51.246;6.850;2023-01-29T04:50:47;4.50;;;4.30;;
6985;SDS011;3533;51.246;6.850;2023-01-29T04:56:13;4.73;;;4.50;;
6985;SDS011;3533;51.246;6.850;2023-01-29T04:58:50;4.40;;;4.20;;
6985;SDS011;3533;51.246;6.850;2023-01-29T05:01:20;6.63;;;5.43;;
6985;SDS011;3533;51.246;6.850;2023-01-29T05:03:53;5.00;;;4.60;;
6985;SDS011;3533;51.246;6.850;2023-01-29T05:06:20;4.33;;;4.13;;
6985;SDS011;3533;51.246;6.850;2023-01-29T05:08:48;4.03;;;3.83;;
6985;SDS011;3533;51.246;6.850;2023-01-29T05:11:15;4.50;;;4.13;;
6985;SDS011;3533;51.246;6.850;2023-01-29T05:13:45;4.70;;;4.33;;
6985;SDS011;3533;51.246;6.850;2023-01-29T05:16:16;4.00;;;3.80;;
6985;SDS011;3533;51.246;6.850;2023-01-29T05:18:47;4.50;;;4.20;;
6985;SDS011;3533;51.246;6.850;2023-01-29T05:21:13;5.07;;;4.77;;
6985;SDS011;3533;51.246;6.850;2023-01-29T05:23:38;5.00;;;4.70;;
6985;SDS011;3533;51.246;6.850;2023-01-29T05:26:16;4.53;;;4.20;;
6985;SDS011;3533;51.246;6.850;2023-01-29T05:29:02;4.80;;;4.50;;
6985;SDS011;3533;51.246;6.850;2023-01-29T05:31:28;4.70;;;4.47;;
6985;SDS011;3533;51.246;6.850;2023-01-29T05:33:53;4.63;;;4.13;;
6985;SDS011;3533;51.246;6.850;2023-01-29T05:36:19;4.83;;;4.30;;
6985;SDS011;3533;51.246;6.850;2023-01-29T05:38:45;5.10;;;4.80;;
6985;SDS011;3533;51.246;6.850;2023-01-29T05:41:10;4.40;;;4.20;;
6985;SDS011;3533;51.246;6.850;2023-01-29T05:43:36;4.60;;;4.40;;
6985;SDS011;3533;51.246;6.850;2023-01-29T05:46:01;4.63;;;4.33;;
6985;SDS011;3533;51.246;6.850;2023-01-29T05:48:28;4.13;;;3.93;;
6985;SDS011;3533;51.246;6.850;2023-01-29T05:50:58;4.53;;;4.27;;
6985;SDS011;3533;51.246;6.850;2023-01-29T05:53:25;4.57;;;4.27;;
6985;SDS011;3533;51.246;6.850;2023-01-29T05:55:50;4.17;;;3.97;;
6985;SDS011;3533;51.246;6.850;2023-01-29T05:58:16;3.80;;;3.60;;
6985;SDS011;3533;51.246;6.850;2023-01-29T06:00:43;4.10;;;3.80;;
6985;SDS011;3533;51.246;6.850;2023-01-29T06:03:09;4.40;;;4.20;;
6985;SDS011;3533;51.246;6.850;2023-01-29T06:05:38;4.60;;;4.30;;
6985;SDS011;3533;51.246;6.850;2023-01-29T06:08:04;4.07;;;3.87;;
6985;SDS011;3533;51.246;6.850;2023-01-29T06:10:30;4.50;;;4.20;;
6985;SDS011;3533;51.246;6.850;2023-01-29T06:12:56;4.10;;;3.90;;
6985;SDS011;3533;51.246;6.850;2023-01-29T06:15:21;4.83;;;4.53;;
6985;SDS011;3533;51.246;6.850;2023-01-29T06:17:48;4.73;;;4.43;;
6985;SDS011;3533;51.246;6.850;2023-01-29T06:20:14;4.23;;;4.03;;
6985;SDS011;3533;51.246;6.850;2023-01-29T06:22:39;3.53;;;3.33;;
6985;SDS011;3533;51.246;6.850;2023-01-29T06:25:05;3.73;;;3.53;;
6985;SDS011;3533;51.246;6.850;2023-01-29T06:27:31;5.37;;;5.07;;
6985;SDS011;3533;51.246;6.850;2023-01-29T06:29:56;3.90;;;3.70;;
6985;SDS011;3533;51.246;6.850;2023-01-29T06:32:22;3.77;;;3.57;;
6985;SDS011;3533;51.246;6.850;2023-01-29T06:34:47;4.13;;;3.83;;
6985;SDS011;3533;51.246;6.850;2023-01-29T06:37:13;3.77;;;3.57;;
6985;SDS011;3533;51.246;6.850;2023-01-29T06:39:38;4.20;;;4.00;;
6985;SDS011;3533;51.246;6.850;2023-01-29T06:42:04;4.17;;;3.87;;
6985;SDS011;3533;51.246;6.850;2023-01-29T06:44:29;4.40;;;4.20;;
6985;SDS011;3533;51.246;6.850;2023-01-29T06:46:55;4.17;;;3.97;;
6985;SDS011;3533;51.246;6.850;2023-01-29T06:49:20;4.70;;;4.40;;
6985;SDS011;3533;51.246;6.850;2023-01-29T06:51:47;4.53;;;4.23;;
6985;SDS011;3533;51.246;6.850;2023-01-29T06:54:12;3.80;;;3.60;;
6985;SDS011;3533;51.246;6.850;2023-01-29T06:56:38;4.40;;;4.10;;
6985;SDS011;3533;51.246;6.850;2023-01-29T06:59:03;4.63;;;4.23;;
6985;SDS011;3533;51.246;6.850;2023-01-29T07:01:29;4.53;;;4.33;;
6985;SDS011;3533;51.246;6.850;2023-01-29T07:03:55;3.80;;;3.60;;
6985;SDS011;3533;51.246;6.850;2023-01-29T07:06:20;4.03;;;3.83;;
6985;SDS011;3533;51.246;6.850;2023-01-29T07:08:52;4.17;;;3.87;;
6985;SDS011;3533;51.246;6.850;2023-01-29T07:11:17;4.27;;;3.93;;
6985;SDS011;3533;51.246;6.850;2023-01-29T07:13:43;4.07;;;3.80;;
6985;SDS011;3533;51.246;6.850;2023-01-29T07:16:08;6.53;;;4.40;;
6985;SDS011;3533;51.246;6.850;2023-01-29T07:18:34;4.83;;;4.20;;
6985;SDS011;3533;51.246;6.850;2023-01-29T07:21:02;4.40;;;4.20;;
6985;SDS011;3533;51.246;6.850;2023-01-29T07:23:30;4.90;;;4.60;;
6985;SDS011;3533;51.246;6.850;2023-01-29T07:25:55;4.20;;;3.90;;
6985;SDS011;3533;51.246;6.850;2023-01-29T07:28:25;4.83;;;4.43;;
6985;SDS011;3533;51.246;6.850;2023-01-29T07:30:54;4.83;;;4.17;;
6985;SDS011;3533;51.246;6.850;2023-01-29T07:33:23;4.77;;;4.37;;
6985;SDS011;3533;51.246;6.850;2023-01-29T07:35:49;4.10;;;3.90;;
6985;SDS011;3533;51.246;6.850;2023-01-29T07:38:14;4.73;;;4.43;;
6985;SDS011;3533;51.246;6.850;2023-01-29T07:40:40;3.97;;;3.67;;
6985;SDS011;3533;51.246;6.850;2023-01-29T07:43:05;4.40;;;4.10;;
6985;SDS011;3533;51.246;6.850;2023-01-29T07:45:35;14.83;;;4.73;;
6985;SDS011;3533;51.246;6.850;2023-01-29T07:48:02;4.90;;;4.40;;
6985;SDS011;3533;51.246;6.850;2023-01-29T07:50:29;4.13;;;3.83;;
6985;SDS011;3533;51.246;6.850;2023-01-29T07:52:55;5.53;;;5.03;;
6985;SDS011;3533;51.246;6.850;2023-01-29T07:55:21;7.23;;;5.80;;
6985;SDS011;3533;51.246;6.850;2023-01-29T07:57:47;4.20;;;4.00;;
6985;SDS011;3533;51.246;6.850;2023-01-29T08:00:18;3.97;;;3.77;;
6985;SDS011;3533;51.246;6.850;2023-01-29T08:02:44;5.20;;;4.80;;
6985;SDS011;3533;51.246;6.850;2023-01-29T08:05:10;5.57;;;5.07;;
6985;SDS011;3533;51.246;6.850;2023-01-29T08:07:35;4.10;;;3.90;;
6985;SDS011;3533;51.246;6.850;2023-01-29T08:10:01;5.80;;;4.50;;
6985;SDS011;3533;51.246;6.850;2023-01-29T08:12:26;4.20;;;4.00;;
6985;SDS011;3533;51.246;6.850;2023-01-29T08:14:52;3.80;;;3.50;;
6985;SDS011;3533;51.246;6.850;2023-01-29T08:17:17;6.23;;;4.33;;
6985;SDS011;3533;51.246;6.850;2023-01-29T08:19:43;4.17;;;3.90;;
6985;SDS011;3533;51.246;6.850;2023-01-29T08:22:08;4.63;;;4.33;;
6985;SDS011;3533;51.246;6.850;2023-01-29T08:24:34;4.13;;;3.83;;
6985;SDS011;3533;51.246;6.850;2023-01-29T08:27:00;3.87;;;3.67;;
6985;SDS011;3533;51.246;6.850;2023-01-29T08:29:25;3.80;;;3.60;;
6985;SDS011;3533;51.246;6.850;2023-01-29T08:31:51;4.70;;;4.40;;
6985;SDS011;3533;51.246;6.850;2023-01-29T08:34:16;3.63;;;3.43;;
6985;SDS011;3533;51.246;6.850;2023-01-29T08:36:42;4.40;;;4.20;;
6985;SDS011;3533;51.246;6.850;2023-01-29T08:39:07;4.40;;;4.10;;
6985;SDS011;3533;51.246;6.850;2023-01-29T08:41:33;4.67;;;4.37;;
6985;SDS011;3533;51.246;6.850;2023-01-29T08:43:59;4.80;;;4.50;;
6985;SDS011;3533;51.246;6.850;2023-01-29T08:46:26;4.67;;;4.37;;
6985;SDS011;3533;51.246;6.850;2023-01-29T08:48:51;4.00;;;3.70;;
6985;SDS011;3533;51.246;6.850;2023-01-29T08:51:17;4.20;;;3.90;;
6985;SDS011;3533;51.246;6.850;2023-01-29T08:53:43;4.40;;;3.97;;
6985;SDS011;3533;51.246;6.850;2023-01-29T08:56:08;4.50;;;4.10;;
6985;SDS011;3533;51.246;6.850;2023-01-29T08:58:34;4.40;;;4.00;;
6985;SDS011;3533;51.246;6.850;2023-01-29T09:01:06;4.50;;;4.13;;
6985;SDS011;3533;51.246;6.850;2023-01-29T09:03:33;3.80;;;3.60;;
6985;SDS011;3533;51.246;6.850;2023-01-29T09:05:58;4.40;;;4.20;;
6985;SDS011;3533;51.246;6.850;2023-01-29T09:08:24;3.83;;;3.63;;
6985;SDS011;3533;51.246;6.850;2023-01-29T09:10:49;4.53;;;3.93;;
6985;SDS011;3533;51.246;6.850;2023-01-29T09:13:14;5.23;;;4.60;;
6985;SDS011;3533;51.246;6.850;2023-01-29T09:15:40;4.03;;;3.73;;
6985;SDS011;3533;51.246;6.850;2023-01-29T09:18:06;4.67;;;4.27;;
6985;SDS011;3533;51.246;6.850;2023-01-29T09:20:31;4.57;;;4.07;;
6985;SDS011;3533;51.246;6.850;2023-01-29T09:22:57;5.53;;;4.30;;
6985;SDS011;3533;51.246;6.850;2023-01-29T09:25:27;4.40;;;3.97;;
6985;SDS011;3533;51.246;6.850;2023-01-29T09:27:53;8.47;;;3.80;;
6985;SDS011;3533;51.246;6.850;2023-01-29T09:30:18;3.93;;;3.63;;
6985;SDS011;3533;51.246;6.850;2023-01-29T09:32:44;5.03;;;4.73;;
6985;SDS011;3533;51.246;6.850;2023-01-29T09:35:09;4.27;;;4.07;;
6985;SDS011;3533;51.246;6.850;2023-01-29T09:37:35;3.80;;;3.60;;
6985;SDS011;3533;51.246;6.850;2023-01-29T09:40:00;4.73;;;4.43;;
6985;SDS011;3533;51.246;6.850;2023-01-29T09:43:02;4.40;;;4.10;;
6985;SDS011;3533;51.246;6.850;2023-01-29T09:45:31;4.33;;;4.13;;
6985;SDS011;3533;51.246;6.850;2023-01-29T09:48:01;4.00;;;3.80;;
6985;SDS011;3533;51.246;6.850;2023-01-29T09:50:30;4.10;;;3.57;;
6985;SDS011;3533;51.246;6.850;2023-01-29T09:53:02;6.40;;;4.57;;
6985;SDS011;3533;51.246;6.850;2023-01-29T09:55:39;4.53;;;4.23;;
6985;SDS011;3533;51.246;6.850;2023-01-29T10:06:14;3.87;;;3.67;;
6985;SDS011;3533;51.246;6.850;2023-01-29T10:09:06;3.53;;;3.33;;
6985;SDS011;3533;51.246;6.850;2023-01-29T10:20:03;3.27;;;3.07;;
6985;SDS011;3533;51.246;6.850;2023-01-29T10:22:56;3.80;;;3.60;;
6985;SDS011;3533;51.246;6.850;2023-01-29T10:25:30;3.43;;;3.23;;
6985;SDS011;3533;51.246;6.850;2023-01-29T10:28:00;3.80;;;3.60;;
6985;SDS011;3533;51.246;6.850;2023-01-29T10:30:30;4.23;;;4.03;;
6985;SDS011;3533;51.246;6.850;2023-01-29T10:33:04;3.93;;;3.63;;
6985;SDS011;3533;51.246;6.850;2023-01-29T10:38:12;3.57;;;3.37;;
6985;SDS011;3533;51.246;6.850;2023-01-29T10:48:51;3.97;;;3.77;;
6985;SDS011;3533;51.246;6.850;2023-01-29T10:54:08;3.80;;;3.60;;
6985;SDS011;3533;51.246;6.850;2023-01-29T10:56:48;3.73;;;3.50;;
6985;SDS011;3533;51.246;6.850;2023-01-29T10:59:33;4.00;;;3.70;;
6985;SDS011;3533;51.246;6.850;2023-01-29T11:02:12;4.40;;;4.00;;
6985;SDS011;3533;51.246;6.850;2023-01-29T11:04:41;4.00;;;3.80;;
6985;SDS011;3533;51.246;6.850;2023-01-29T11:07:07;3.53;;;3.33;;
6985;SDS011;3533;51.246;6.850;2023-01-29T11:09:34;3.40;;;3.20;;
6985;SDS011;3533;51.246;6.850;2023-01-29T11:17:17;3.50;;;3.30;;
6985;SDS011;3533;51.246;6.850;2023-01-29T11:19:48;3.00;;;2.80;;
6985;SDS011;3533;51.246;6.850;2023-01-29T11:22:28;3.67;;;2.80;;
6985;SDS011;3533;51.246;6.850;2023-01-29T11:25:08;2.90;;;2.70;;
6985;SDS011;3533;51.246;6.850;2023-01-29T11:27:42;3.40;;;3.10;;
6985;SDS011;3533;51.246;6.850;2023-01-29T11:30:14;3.63;;;3.43;;
6985;SDS011;3533;51.246;6.850;2023-01-29T11:32:44;2.77;;;2.67;;
6985;SDS011;3533;51.246;6.850;2023-01-29T11:37:42;3.10;;;2.90;;
6985;SDS011;3533;51.246;6.850;2023-01-29T11:40:27;3.00;;;2.80;;
6985;SDS011;3533;51.246;6.850;2023-01-29T11:45:45;3.30;;;3.10;;
6985;SDS011;3533;51.246;6.850;2023-01-29T11:48:20;5.40;;;3.00;;
6985;SDS011;3533;51.246;6.850;2023-01-29T11:50:58;3.37;;;3.17;;
6985;SDS011;3533;51.246;6.850;2023-01-29T11:53:35;4.00;;;3.80;;
6985;SDS011;3533;51.246;6.850;2023-01-29T11:56:15;3.43;;;3.23;;
6985;SDS011;3533;51.246;6.850;2023-01-29T11:58:41;3.23;;;3.03;;
6985;SDS011;3533;51.246;6.850;2023-01-29T12:01:08;3.03;;;2.83;;
6985;SDS011;3533;51.246;6.850;2023-01-29T12:03:36;3.53;;;3.33;;
6985;SDS011;3533;51.246;6.850;2023-01-29T12:08:41;4.90;;;3.40;;
6985;SDS011;3533;51.246;6.850;2023-01-29T12:14:38;5.10;;;3.80;;
6985;SDS011;3533;51.246;6.850;2023-01-29T12:17:12;3.20;;;3.00;;
6985;SDS011;3533;51.246;6.850;2023-01-29T12:19:47;3.67;;;3.47;;
6985;SDS011;3533;51.246;6.850;2023-01-29T12:25:01;6.43;;;3.97;;
6985;SDS011;3533;51.246;6.850;2023-01-29T12:30:36;5.30;;;3.70;;
6985;SDS011;3533;51.246;6.850;2023-01-29T12:35:42;3.20;;;3.00;;
6985;SDS011;3533;51.246;6.850;2023-01-29T12:38:17;3.70;;;3.50;;
6985;SDS011;3533;51.246;6.850;2023-01-29T12:43:16;3.40;;;3.20;;
6985;SDS011;3533;51.246;6.850;2023-01-29T12:45:47;3.30;;;3.13;;
6985;SDS011;3533;51.246;6.850;2023-01-29T12:51:16;3.60;;;3.40;;
6985;SDS011;3533;51.246;6.850;2023-01-29T12:53:49;4.47;;;3.50;;
6985;SDS011;3533;51.246;6.850;2023-01-29T12:56:25;3.17;;;2.97;;
6985;SDS011;3533;51.246;6.850;2023-01-29T12:58:56;3.40;;;3.10;;
6985;SDS011;3533;51.246;6.850;2023-01-29T13:01:30;3.00;;;2.80;;
6985;SDS011;3533;51.246;6.850;2023-01-29T13:06:32;3.10;;;2.90;;
6985;SDS011;3533;51.246;6.850;2023-01-29T13:09:11;2.87;;;2.70;;
6985;SDS011;3533;51.246;6.850;2023-01-29T13:11:49;4.20;;;2.63;;
6985;SDS011;3533;51.246;6.850;2023-01-29T13:14:39;3.13;;;2.90;;
6985;SDS011;3533;51.246;6.850;2023-01-29T13:17:30;2.90;;;2.70;;
6985;SDS011;3533;51.246;6.850;2023-01-29T13:20:04;2.90;;;2.70;;
6985;SDS011;3533;51.246;6.850;2023-01-29T13:22:47;2.70;;;2.50;;
6985;SDS011;3533;51.246;6.850;2023-01-29T13:25:14;2.90;;;2.70;;
6985;SDS011;3533;51.246;6.850;2023-01-29T13:27:42;2.67;;;2.57;;
6985;SDS011;3533;51.246;6.850;2023-01-29T13:30:22;2.87;;;2.67;;
6985;SDS011;3533;51.246;6.850;2023-01-29T13:32:52;2.93;;;2.77;;
6985;SDS011;3533;51.246;6.850;2023-01-29T13:35:32;2.47;;;2.37;;
6985;SDS011;3533;51.246;6.850;2023-01-29T13:38:03;2.93;;;2.73;;
6985;SDS011;3533;51.246;6.850;2023-01-29T13:40:41;2.57;;;2.47;;
6985;SDS011;3533;51.246;6.850;2023-01-29T13:43:21;2.87;;;2.67;;
6985;SDS011;3533;51.246;6.850;2023-01-29T13:45:47;2.90;;;2.80;;
6985;SDS011;3533;51.246;6.850;2023-01-29T13:50:44;2.60;;;2.50;;
6985;SDS011;3533;51.246;6.850;2023-01-29T13:53:24;2.60;;;2.40;;
6985;SDS011;3533;51.246;6.850;2023-01-29T13:58:54;2.37;;;2.27;;
6985;SDS011;3533;51.246;6.850;2023-01-29T14:04:27;3.40;;;2.40;;
6985;SDS011;3533;51.246;6.850;2023-01-29T14:06:58;2.77;;;2.67;;
6985;SDS011;3533;51.246;6.850;2023-01-29T14:12:02;26.70;;;7.40;;
6985;SDS011;3533;51.246;6.850;2023-01-29T14:17:13;96.53;;;18.60;;
6985;SDS011;3533;51.246;6.850;2023-01-29T14:19:47;120.30;;;24.03;;
6985;SDS011;3533;51.246;6.850;2023-01-29T14:22:32;67.13;;;19.20;;
6985;SDS011;3533;51.246;6.850;2023-01-29T14:25:02;65.77;;;17.83;;
6985;SDS011;3533;51.246;6.850;2023-01-29T14:27:29;49.47;;;15.77;;
6985;SDS011;3533;51.246;6.850;2023-01-29T14:29:59;56.57;;;14.23;;
6985;SDS011;3533;51.246;6.850;2023-01-29T14:32:30;69.43;;;19.47;;
6985;SDS011;3533;51.246;6.850;2023-01-29T14:35:03;83.27;;;20.37;;
6985;SDS011;3533;51.246;6.850;2023-01-29T14:37:40;20.53;;;8.07;;
6985;SDS011;3533;51.246;6.850;2023-01-29T14:45:32;37.73;;;11.53;;
6985;SDS011;3533;51.246;6.850;2023-01-29T14:48:04;25.50;;;8.87;;
6985;SDS011;3533;51.246;6.850;2023-01-29T14:51:18;23.40;;;8.00;;
6985;SDS011;3533;51.246;6.850;2023-01-29T14:54:11;21.43;;;7.03;;
6985;SDS011;3533;51.246;6.850;2023-01-29T14:56:46;16.10;;;6.47;;
6985;SDS011;3533;51.246;6.850;2023-01-29T14:59:25;10.53;;;5.13;;
6985;SDS011;3533;51.246;6.850;2023-01-29T15:02:04;10.83;;;5.70;;
6985;SDS011;3533;51.246;6.850;2023-01-29T15:04:51;10.60;;;6.30;;
6985;SDS011;3533;51.246;6.850;2023-01-29T15:07:22;10.87;;;4.60;;
6985;SDS011;3533;51.246;6.850;2023-01-29T15:09:51;8.50;;;4.93;;
6985;SDS011;3533;51.246;6.850;2023-01-29T15:15:14;7.53;;;6.40;;
6985;SDS011;3533;51.246;6.850;2023-01-29T15:17:48;7.40;;;4.90;;
6985;SDS011;3533;51.246;6.850;2023-01-29T15:20:25;6.27;;;4.83;;
6985;SDS011;3533;51.246;6.850;2023-01-29T15:22:51;7.33;;;4.70;;
6985;SDS011;3533;51.246;6.850;2023-01-29T15:25:16;7.23;;;4.33;;
6985;SDS011;3533;51.246;6.850;2023-01-29T15:27:44;6.33;;;3.73;;
6985;SDS011;3533;51.246;6.850;2023-01-29T15:30:13;4.37;;;4.07;;
6985;SDS011;3533;51.246;6.850;2023-01-29T15:32:41;4.33;;;3.50;;
6985;SDS011;3533;51.246;6.850;2023-01-29T15:35:09;5.50;;;4.60;;
6985;SDS011;3533;51.246;6.850;2023-01-29T15:37:42;4.87;;;3.70;;
6985;SDS011;3533;51.246;6.850;2023-01-29T15:40:12;5.77;;;4.03;;
6985;SDS011;3533;51.246;6.850;2023-01-29T15:42:44;5.40;;;3.30;;
6985;SDS011;3533;51.246;6.850;2023-01-29T15:45:22;8.10;;;4.30;;
6985;SDS011;3533;51.246;6.850;2023-01-29T15:47:49;3.90;;;3.60;;
6985;SDS011;3533;51.246;6.850;2023-01-29T15:50:16;5.30;;;3.80;;
6985;SDS011;3533;51.246;6.850;2023-01-29T15:52:42;3.40;;;3.10;;
6985;SDS011;3533;51.246;6.850;2023-01-29T15:55:12;3.83;;;3.50;;
6985;SDS011;3533;51.246;6.850;2023-01-29T15:57:39;4.40;;;3.10;;
6985;SDS011;3533;51.246;6.850;2023-01-29T16:00:07;4.00;;;3.60;;
6985;SDS011;3533;51.246;6.850;2023-01-29T16:02:42;3.87;;;3.57;;
6985;SDS011;3533;51.246;6.850;2023-01-29T16:05:12;5.13;;;3.30;;
6985;SDS011;3533;51.246;6.850;2023-01-29T16:07:43;3.73;;;3.43;;
6985;SDS011;3533;51.246;6.850;2023-01-29T16:10:13;3.80;;;3.47;;
6985;SDS011;3533;51.246;6.850;2023-01-29T16:12:48;3.33;;;3.10;;
6985;SDS011;3533;51.246;6.850;2023-01-29T16:15:29;3.17;;;2.80;;
6985;SDS011;3533;51.246;6.850;2023-01-29T16:17:57;3.00;;;2.80;;
6985;SDS011;3533;51.246;6.850;2023-01-29T16:20:40;2.40;;;2.20;;
6985;SDS011;3533;51.246;6.850;2023-01-29T16:23:15;3.37;;;3.10;;
6985;SDS011;3533;51.246;6.850;2023-01-29T16:25:52;2.80;;;2.60;;
6985;SDS011;3533;51.246;6.850;2023-01-29T16:28:20;2.93;;;2.63;;
6985;SDS011;3533;51.246;6.850;2023-01-29T16:30:46;5.73;;;2.70;;
6985;SDS011;3533;51.246;6.850;2023-01-29T16:33:14;7.63;;;3.43;;
6985;SDS011;3533;51.246;6.850;2023-01-29T16:35:41;7.87;;;3.37;;
6985;SDS011;3533;51.246;6.850;2023-01-29T16:43:49;7.40;;;3.43;;
6985;SDS011;3533;51.246;6.850;2023-01-29T16:48:55;5.80;;;3.30;;
6985;SDS011;3533;51.246;6.850;2023-01-29T16:51:22;3.47;;;2.83;;
6985;SDS011;3533;51.246;6.850;2023-01-29T16:56:33;5.23;;;2.77;;
6985;SDS011;3533;51.246;6.850;2023-01-29T16:58:59;7.50;;;2.80;;
6985;SDS011;3533;51.246;6.850;2023-01-29T17:01:27;4.93;;;2.40;;
6985;SDS011;3533;51.246;6.850;2023-01-29T17:04:10;6.20;;;5.57;;
6985;SDS011;3533;51.246;6.850;2023-01-29T17:06:43;3.30;;;2.90;;
6985;SDS011;3533;51.246;6.850;2023-01-29T17:09:18;6.77;;;2.80;;
6985;SDS011;3533;51.246;6.850;2023-01-29T17:11:47;19.40;;;5.73;;
6985;SDS011;3533;51.246;6.850;2023-01-29T17:14:19;22.13;;;4.17;;
6985;SDS011;3533;51.246;6.850;2023-01-29T17:16:49;7.70;;;3.47;;
6985;SDS011;3533;51.246;6.850;2023-01-29T17:19:25;14.23;;;4.23;;
6985;SDS011;3533;51.246;6.850;2023-01-29T17:21:51;6.80;;;3.10;;
6985;SDS011;3533;51.246;6.850;2023-01-29T17:24:17;6.47;;;3.20;;
6985;SDS011;3533;51.246;6.850;2023-01-29T17:26:42;3.63;;;3.00;;
6985;SDS011;3533;51.246;6.850;2023-01-29T17:29:11;4.70;;;2.90;;
6985;SDS011;3533;51.246;6.850;2023-01-29T17:31:40;9.43;;;3.50;;
6985;SDS011;3533;51.246;6.850;2023-01-29T17:34:10;3.60;;;3.30;;
6985;SDS011;3533;51.246;6.850;2023-01-29T17:36:38;3.37;;;2.90;;
6985;SDS011;3533;51.246;6.850;2023-01-29T17:39:25;5.77;;;2.97;;
6985;SDS011;3533;51.246;6.850;2023-01-29T17:41:51;3.07;;;2.63;;
6985;SDS011;3533;51.246;6.850;2023-01-29T17:44:18;3.17;;;2.87;;
6985;SDS011;3533;51.246;6.850;2023-01-29T17:46:44;5.67;;;2.90;;
6985;SDS011;3533;51.246;6.850;2023-01-29T17:49:31;3.43;;;3.13;;
6985;SDS011;3533;51.246;6.850;2023-01-29T17:52:02;3.00;;;2.70;;